Time;durP1;ratioP1;P1;durP2;ratioP2;P2;SDS_P1;SDS_P2;PMS_P1;PMS_P2;Temp;Humidity;BMP_temperature;BMP_pressure;BME280_temperature;BME280_humidity;BME280_pressure;Samples;Min_cycle;Max_cycle;Signal;HPM_P1;HPM_P2
2022/05/10 00:01:58;;;;;;;16.60;5.13;;;;;;;27.66;51.77;97686.88;4909210;29;20196;-69
2022/05/10 00:04:50;;;;;;;14.70;5.05;;;;;;;27.70;53.60;97687.31;4904144;29;20496;-69
2022/05/10 00:07:37;;;;;;;8.93;4.40;;;;;;;27.67;52.06;97691.16;4902183;29;20048;-69
2022/05/10 00:10:27;;;;;;;10.70;4.85;;;;;;;27.64;54.54;97691.50;4892091;29;20060;-68
2022/05/10 00:13:10;;;;;;;19.73;5.07;;;;;;;27.63;54.78;97684.56;4898736;29;20044;-67
2022/05/10 00:16:05;;;;;;;8.85;4.72;;;;;;;27.62;55.47;97696.16;4909707;29;20159;-68
2022/05/10 00:18:42;;;;;;;12.93;4.72;;;;;;;27.67;57.30;97706.22;4928202;29;20047;-68
2022/05/10 00:21:32;;;;;;;13.00;4.82;;;;;;;27.71;54.11;97713.63;4929400;29;20114;-69
2022/05/10 00:24:22;;;;;;;18.85;4.88;;;;;;;27.72;51.13;97720.56;4929505;29;20069;-68
2022/05/10 00:27:11;;;;;;;25.90;5.57;;;;;;;27.80;50.23;97724.97;4929439;29;20123;-68
2022/05/10 00:29:55;;;;;;;14.93;5.10;;;;;;;27.79;53.86;97729.44;4913571;29;20087;-68
2022/05/10 00:32:45;;;;;;;14.90;4.50;;;;;;;27.76;54.51;97728.97;4916269;29;20048;-69
2022/05/10 00:35:34;;;;;;;11.65;5.05;;;;;;;27.74;54.49;97733.63;4910419;29;20143;-69
2022/05/10 00:38:38;;;;;;;14.13;4.80;;;;;;;27.76;54.64;97734.28;4909676;29;20421;-68
2022/05/10 00:41:47;;;;;;;12.57;4.77;;;;;;;27.74;55.50;97737.09;4910569;29;20071;-68
2022/05/10 00:44:43;;;;;;;11.57;4.88;;;;;;;27.79;51.66;97736.56;4912254;28;20056;-68
2022/05/10 00:47:50;;;;;;;12.73;5.13;;;;;;;27.87;54.05;97749.72;4897649;29;20142;-68
2022/05/10 00:50:51;;;;;;;16.10;5.28;;;;;;;27.91;54.87;97755.50;4893495;29;20555;-68
2022/05/10 00:53:51;;;;;;;12.70;5.03;;;;;;;27.95;55.06;97762.06;4893236;29;20044;-68
2022/05/10 00:56:51;;;;;;;15.32;5.15;;;;;;;27.92;50.44;97768.56;4892410;29;20056;-69
2022/05/10 00:59:51;;;;;;;17.95;6.00;;;;;;;27.90;52.59;97773.22;4891170;29;20044;-68
2022/05/10 01:02:58;;;;;;;11.82;5.30;;;;;;;27.91;56.33;97771.38;4891328;29;20052;-69
2022/05/10 01:06:11;;;;;;;18.55;6.25;;;;;;;27.88;54.95;97775.22;4891274;29;20063;-68
2022/05/10 01:09:06;;;;;;;16.65;5.78;;;;;;;27.93;54.73;97785.28;4891296;29;20120;-68
2022/05/10 01:11:54;;;;;;;14.90;6.13;;;;;;;28.00;59.23;97788.88;4891050;29;20072;-69
2022/05/10 01:15:14;;;;;;;12.88;5.45;;;;;;;28.01;59.41;97786.03;4891196;29;20052;-68
2022/05/10 01:17:56;;;;;;;17.45;6.50;;;;;;;28.02;57.02;97795.63;4890922;29;20139;-68
2022/05/10 01:20:46;;;;;;;23.08;7.68;;;;;;;28.09;57.82;97795.75;4890850;29;20147;-69
2022/05/10 01:24:12;;;;;;;24.10;7.70;;;;;;;28.16;60.20;97805.47;4903118;29;20394;-68
2022/05/10 01:27:24;;;;;;;21.67;7.80;;;;;;;28.23;63.56;97802.13;4907498;29;20134;-68
2022/05/10 01:30:25;;;;;;;14.52;7.15;;;;;;;28.27;63.56;97798.91;4928150;29;20114;-68
2022/05/10 01:33:30;;;;;;;23.25;8.68;;;;;;;28.34;64.27;97810.44;4918055;29;20059;-68
2022/05/10 01:36:36;;;;;;;25.00;9.40;;;;;;;28.43;62.38;97816.50;4901124;29;20083;-68
2022/05/10 01:39:46;;;;;;;21.33;9.40;;;;;;;28.54;66.35;97822.19;4909496;29;20082;-69
2022/05/10 01:42:50;;;;;;;21.38;9.35;;;;;;;28.62;62.07;97823.94;4909900;29;20052;-69
2022/05/10 01:46:02;;;;;;;23.25;9.75;;;;;;;28.81;62.05;97833.25;4911092;28;20055;-68
2022/05/10 01:48:55;;;;;;;21.90;10.57;;;;;;;29.05;66.69;97830.31;4903888;29;20066;-69
2022/05/10 01:51:50;;;;;;;24.02;9.23;;;;;;;29.18;65.50;97841.09;4909929;29;20052;-68
2022/05/10 01:54:41;;;;;;;39.70;11.98;;;;;;;29.30;62.35;97839.59;4909539;29;20072;-68
2022/05/10 01:57:24;;;;;;;22.63;11.13;;;;;;;29.49;67.39;97840.91;4909372;29;20044;-68
2022/05/10 02:00:21;;;;;;;23.67;11.95;;;;;;;29.61;66.41;97847.34;4909415;29;20051;-68
2022/05/10 02:03:44;;;;;;;24.42;12.05;;;;;;;29.87;67.33;97848.66;4909863;29;20048;-67
2022/05/10 02:06:48;;;;;;;29.17;13.45;;;;;;;30.01;64.54;97847.84;4855996;29;20079;-68
2022/05/10 02:09:38;;;;;;;24.08;14.25;;;;;;;30.22;62.48;97849.66;4907715;29;20413;-68
2022/05/10 02:13:01;;;;;;;27.98;14.00;;;;;;;30.55;62.05;97856.13;4895356;29;20136;-68
2022/05/10 02:16:05;;;;;;;28.65;14.65;;;;;;;30.68;61.50;97866.03;4909707;29;20139;-68
2022/05/10 02:19:10;;;;;;;28.35;15.00;;;;;;;31.02;62.20;97859.94;4909446;29;20044;-68
2022/05/10 02:22:12;;;;;;;32.63;16.00;;;;;;;31.23;61.67;97864.38;4896461;29;20528;-68
2022/05/10 02:25:27;;;;;;;36.58;15.75;;;;;;;31.49;60.67;97875.97;4909370;29;20512;-68
2022/05/10 02:28:50;;;;;;;37.83;15.82;;;;;;;31.62;60.84;97882.38;4922312;29;20063;-68
2022/05/10 02:33:06;;;;;;;27.25;15.48;;;;;;;31.90;60.89;97881.28;4902572;29;20050;-67
2022/05/10 02:34:50;;;;;;;38.38;16.95;;;;;;;32.10;61.77;97883.97;4890342;29;20045;-68
2022/05/10 02:37:32;;;;;;;29.42;16.40;;;;;;;32.00;58.00;97893.41;4908885;29;20040;-69
2022/05/10 02:40:21;;;;;;;32.65;16.48;;;;;;;32.11;57.89;97892.78;4908631;29;20115;-68
2022/05/10 02:43:11;;;;;;;32.53;15.55;;;;;;;32.34;58.22;97892.44;4909027;29;20064;-68
2022/05/10 02:46:00;;;;;;;38.40;15.95;;;;;;;32.61;62.31;97894.13;4916621;28;20087;-69
2022/05/10 02:48:50;;;;;;;28.08;15.90;;;;;;;32.62;56.92;97899.25;4912515;29;20127;-69
2022/05/10 02:51:32;;;;;;;36.92;16.25;;;;;;;32.69;57.32;97907.28;4912446;29;20051;-69
2022/05/10 02:54:27;;;;;;;26.27;15.40;;;;;;;33.06;59.69;97900.47;4912194;29;20051;-69
2022/05/10 02:57:04;;;;;;;50.20;17.40;;;;;;;33.00;56.17;97906.66;4912263;29;20044;-68
2022/05/10 02:59:58;;;;;;;28.35;15.73;;;;;;;33.19;57.44;97913.00;4912511;29;20052;-68
2022/05/10 03:02:45;;;;;;;27.05;16.38;;;;;;;33.20;54.59;97911.97;4910808;29;20041;-68
2022/05/10 03:05:34;;;;;;;35.40;17.83;;;;;;;32.89;55.49;97916.09;4895757;29;20543;-68
2022/05/10 03:08:23;;;;;;;30.00;15.55;;;;;;;33.11;54.55;97918.56;4912200;29;20123;-68
2022/05/10 03:11:05;;;;;;;36.75;16.70;;;;;;;33.37;54.77;97910.50;4911882;29;20119;-69
2022/05/10 03:13:56;;;;;;;34.42;16.85;;;;;;;33.31;53.67;97911.34;4912046;29;20102;-68
2022/05/10 03:16:44;;;;;;;31.27;16.85;;;;;;;33.25;54.27;97914.84;4911831;29;20147;-69
2022/05/10 03:19:33;;;;;;;28.95;15.57;;;;;;;33.02;54.81;97901.94;4917754;29;20528;-68
2022/05/10 03:22:15;;;;;;;32.53;17.15;;;;;;;33.37;53.48;97905.16;4916217;29;20044;-68
2022/05/10 03:25:04;;;;;;;38.72;15.55;;;;;;;33.68;54.31;97909.81;4912291;29;20123;-68
2022/05/10 03:27:48;;;;;;;;;;;;;;;33.69;55.45;97906.06;4925095;29;20044;-68
2022/05/10 03:30:37;;;;;;;28.23;15.30;;;;;;;33.58;52.75;97899.56;4936412;29;19927;-69
2022/05/10 03:33:19;;;;;;;32.42;15.82;;;;;;;33.57;53.99;97903.25;4918218;29;20051;-69
2022/05/10 03:36:08;;;;;;;23.95;15.18;;;;;;;33.85;54.16;97900.28;4923592;29;20048;-68
2022/05/10 03:38:50;;;;;;;27.88;15.90;;;;;;;34.10;53.56;97908.38;4912524;29;20554;-68
2022/05/10 03:41:39;;;;;;;33.88;16.58;;;;;;;34.23;53.29;97903.00;4910965;29;20063;-69
2022/05/10 03:44:21;;;;;;;33.47;16.00;;;;;;;34.27;53.11;97898.84;4911079;29;20123;-68
2022/05/10 03:47:18;;;;;;;28.15;15.80;;;;;;;34.59;52.08;97912.19;4912383;28;20092;-68
2022/05/10 03:50:15;;;;;;;29.13;15.90;;;;;;;34.79;52.73;97913.72;4911572;29;20052;-68
2022/05/10 03:52:51;;;;;;;26.42;16.13;;;;;;;34.76;51.65;97907.97;4911410;29;20052;-69
2022/05/10 03:55:40;;;;;;;30.92;16.25;;;;;;;34.63;52.69;97916.09;4910162;29;20052;-69
2022/05/10 03:58:22;;;;;;;27.40;15.55;;;;;;;34.99;51.45;97907.34;4910930;29;20143;-69
2022/05/10 04:01:11;;;;;;;28.02;15.23;;;;;;;35.27;51.87;97916.59;4918545;29;20055;-69
2022/05/10 04:04:01;;;;;;;21.15;15.32;;;;;;;35.30;51.00;97909.94;4908682;29;20521;-69
2022/05/10 04:06:43;;;;;;;30.75;15.18;;;;;;;35.38;51.14;97919.56;4891971;29;20151;-70
2022/05/10 04:09:31;;;;;;;36.63;15.20;;;;;;;35.68;52.01;97915.06;4891795;29;20112;-68
2022/05/10 04:12:13;;;;;;;26.85;14.93;;;;;;;35.90;49.71;97916.28;4906190;29;20045;-67
2022/05/10 04:15:03;;;;;;;25.83;16.55;;;;;;;35.97;49.77;97916.19;4910466;29;20111;-68
2022/05/10 04:17:47;;;;;;;29.33;14.93;;;;;;;35.85;47.54;97918.00;4919691;29;20052;-68
2022/05/10 04:20:36;;;;;;;32.50;15.98;;;;;;;35.95;51.03;97911.06;4928961;29;20137;-68
2022/05/10 04:23:18;;;;;;;31.25;15.40;;;;;;;36.18;49.18;97912.19;4921790;29;20491;-68
2022/05/10 04:26:24;;;;;;;25.27;15.23;;;;;;;36.51;49.79;97915.22;4910009;29;20161;-68
2022/05/10 04:29:09;;;;;;;29.25;15.88;;;;;;;36.02;48.04;97916.31;4909635;29;20040;-68
2022/05/10 04:31:58;;;;;;;27.48;16.27;;;;;;;35.49;47.47;97908.09;4900831;29;20036;-68
2022/05/10 04:34:40;;;;;;;30.10;16.65;;;;;;;35.64;49.01;97908.53;4893619;29;20049;-68
2022/05/10 04:37:29;;;;;;;30.88;16.75;;;;;;;36.15;47.57;97907.28;4903798;29;20103;-69
2022/05/10 04:43:25;;;;;;;25.45;16.08;;;;;;;35.80;48.99;97905.28;4890492;29;20084;-68
2022/05/10 04:46:08;;;;;;;34.08;15.93;;;;;;;35.85;46.63;97908.09;4901048;28;20059;-67
2022/05/10 04:48:56;;;;;;;34.20;15.52;;;;;;;35.98;49.62;97907.94;4909688;29;20056;-66
2022/05/10 04:51:46;;;;;;;48.40;17.60;;;;;;;36.00;46.71;97903.13;4909991;29;20052;-66
2022/05/10 04:54:28;;;;;;;31.58;17.20;;;;;;;35.57;50.05;97897.91;4909364;29;25665;-66
2022/05/10 04:57:16;;;;;;;29.80;16.25;;;;;;;36.56;52.64;97895.75;4909495;29;20107;-65
2022/05/10 05:00:06;;;;;;;29.48;15.77;;;;;;;36.63;51.37;97899.16;4902630;29;20510;-67
2022/05/10 05:03:00;;;;;;;27.02;17.55;;;;;;;36.72;49.96;97900.44;4899128;29;20060;-66
2022/05/10 05:05:36;;;;;;;30.27;15.60;;;;;;;36.86;48.76;97903.75;4898951;29;20040;-65
2022/05/10 05:08:26;;;;;;;35.70;15.75;;;;;;;36.42;48.78;97903.19;4898206;29;20048;-67
2022/05/10 05:11:16;;;;;;;26.83;16.02;;;;;;;36.67;47.98;97911.91;4899526;29;20140;-67
2022/05/10 05:13:58;;;;;;;30.45;15.98;;;;;;;37.00;46.39;97902.47;4896163;29;20132;-67
2022/05/10 05:16:48;;;;;;;31.42;15.63;;;;;;;36.91;45.34;97901.19;4889952;29;20516;-65
2022/05/10 05:19:29;;;;;;;43.55;17.45;;;;;;;37.05;45.09;97902.56;4901640;29;20056;-65
2022/05/10 05:22:18;;;;;;;30.25;16.25;;;;;;;37.15;48.06;97892.09;4899926;29;20140;-66
2022/05/10 05:25:08;;;;;;;34.92;15.52;;;;;;;37.27;48.13;97892.91;4898183;29;20053;-65
2022/05/10 05:27:49;;;;;;;31.05;15.77;;;;;;;37.00;46.00;97889.84;4899410;29;20709;-67
2022/05/10 05:30:40;;;;;;;29.83;16.60;;;;;;;37.02;44.25;97893.13;4896179;29;20432;-65
2022/05/10 05:33:29;;;;;;;42.75;15.02;;;;;;;37.57;48.16;97886.53;4908756;29;20067;-66
2022/05/10 05:36:11;;;;;;;28.50;15.07;;;;;;;37.66;45.76;97888.63;4889565;29;20357;-66
2022/05/10 05:39:01;;;;;;;33.83;15.93;;;;;;;37.57;45.61;97881.97;4902954;29;20048;-67
2022/05/10 05:41:43;;;;;;;39.35;15.10;;;;;;;36.97;45.23;97881.44;4912845;29;20053;-65
2022/05/10 05:44:33;;;;;;;35.83;15.45;;;;;;;36.87;44.24;97879.34;4898267;29;20064;-66
2022/05/10 05:47:22;;;;;;;27.48;14.68;;;;;;;37.21;45.92;97880.38;4907162;29;20480;-66
2022/05/10 05:50:14;;;;;;;28.05;15.18;;;;;;;37.44;44.98;97877.66;4893110;29;20134;-66
2022/05/10 05:52:57;;;;;;;33.45;15.93;;;;;;;37.10;45.91;97879.34;4917413;29;20047;-66
2022/05/10 05:55:48;;;;;;;26.17;15.00;;;;;;;37.53;47.89;97870.03;4900436;29;20616;-66
2022/05/10 05:58:31;;;;;;;30.08;15.55;;;;;;;37.64;44.37;97871.09;4901541;29;20063;-65
2022/05/10 06:01:27;;;;;;;30.13;15.50;;;;;;;37.65;47.07;97864.66;4902955;29;20138;-66
2022/05/10 06:04:03;;;;;;;29.85;15.57;;;;;;;37.40;43.95;97865.75;4898542;29;20373;-66
2022/05/10 06:06:53;;;;;;;28.45;15.45;;;;;;;37.41;45.04;97864.72;4900755;29;20083;-66
2022/05/10 06:09:35;;;;;;;27.80;16.77;;;;;;;37.77;44.43;97862.75;4898705;29;20463;-65
2022/05/10 06:12:23;;;;;;;28.23;16.45;;;;;;;37.72;45.94;97860.78;4904756;29;20505;-67
2022/05/10 06:15:16;;;;;;;26.48;16.20;;;;;;;37.59;44.36;97860.22;4901815;29;20142;-66
2022/05/10 06:17:58;;;;;;;33.00;16.08;;;;;;;37.64;46.37;97854.97;4898481;29;20090;-65
2022/05/10 06:20:47;;;;;;;23.48;16.50;;;;;;;37.40;44.98;97857.69;4890907;29;20108;-65
2022/05/10 06:23:36;;;;;;;24.45;15.65;;;;;;;37.78;46.62;97853.63;4903526;29;20622;-66
2022/05/10 06:26:18;;;;;;;36.08;18.60;;;;;;;37.66;42.99;97847.47;4903262;29;20052;-65
2022/05/10 06:29:14;;;;;;;39.65;17.40;;;;;;;37.83;43.81;97849.16;4905218;29;20059;-65
2022/05/10 06:31:49;;;;;;;28.25;15.43;;;;;;;37.85;47.47;97840.84;4901528;29;20543;-65
2022/05/10 06:34:41;;;;;;;25.33;15.75;;;;;;;37.82;45.65;97842.16;4902287;29;20729;-65
2022/05/10 06:40:37;;;;;;;28.48;14.85;;;;;;;37.95;48.10;97824.88;4896277;29;20048;-65
2022/05/10 06:43:13;;;;;;;31.10;15.55;;;;;;;37.81;42.34;97815.50;4898353;29;20119;-66
2022/05/10 06:46:12;;;;;;;27.23;16.00;;;;;;;38.02;43.71;97830.94;4889735;29;20691;-65
2022/05/10 06:48:55;;;;;;;25.15;16.05;;;;;;;37.83;45.15;97818.75;4903061;29;20056;-65
2022/05/10 06:51:43;;;;;;;27.05;16.02;;;;;;;37.76;44.17;97812.69;4904964;29;20111;-65
2022/05/10 06:54:32;;;;;;;28.10;15.20;;;;;;;37.84;41.59;97812.28;4903437;29;20139;-65
2022/05/10 06:57:14;;;;;;;29.13;18.20;;;;;;;38.04;43.93;97809.97;4908965;29;20097;-65
2022/05/10 07:00:04;;;;;;;32.55;16.88;;;;;;;37.85;43.05;97811.25;4903782;29;20064;-66
2022/05/10 07:02:46;;;;;;;43.13;16.95;;;;;;;37.82;45.90;97799.13;4903398;29;20052;-66
2022/05/10 07:05:35;;;;;;;31.15;16.77;;;;;;;37.83;43.20;97803.44;4903518;29;20049;-66
2022/05/10 07:08:24;;;;;;;30.88;16.80;;;;;;;37.78;45.98;97791.75;4903070;29;20477;-66
2022/05/10 07:11:06;;;;;;;30.42;16.02;;;;;;;37.74;42.13;97790.63;4903788;29;20082;-66
2022/05/10 07:13:56;;;;;;;22.67;16.35;;;;;;;37.86;44.77;97788.66;4895943;29;20053;-66
2022/05/10 07:16:38;;;;;;;26.55;17.00;;;;;;;37.74;40.10;97793.31;4899890;29;20048;-63
2022/05/10 07:19:26;;;;;;;26.73;17.02;;;;;;;37.73;41.26;97781.72;4889988;29;21335;-65
2022/05/10 07:22:10;;;;;;;30.75;15.05;;;;;;;37.78;43.50;97771.06;4908797;29;20630;-65
2022/05/10 07:24:58;;;;;;;28.83;17.17;;;;;;;37.93;43.15;97767.81;4906787;29;20771;-65
2022/05/10 07:27:41;;;;;;;;;;;;;;;37.92;41.48;97771.56;4904256;29;20059;-66
2022/05/10 07:30:32;;;;;;;27.27;16.55;;;;;;;37.98;43.46;97765.22;4908294;29;20021;-65
2022/05/10 07:33:24;;;;;;;29.33;16.65;;;;;;;37.75;39.71;97758.09;4906233;29;20048;-65
2022/05/10 07:36:28;;;;;;;26.75;15.77;;;;;;;37.75;39.91;97751.91;4909689;29;20135;-67
2022/05/10 07:39:20;;;;;;;27.33;15.57;;;;;;;37.87;42.71;97747.25;4908399;29;20079;-65
2022/05/10 07:42:04;;;;;;;32.45;15.57;;;;;;;37.96;44.88;97748.50;4904945;29;20509;-67
2022/05/10 07:44:54;;;;;;;29.20;16.25;;;;;;;37.71;40.71;97745.38;4894422;29;20045;-67
2022/05/10 07:47:39;;;;;;;24.52;16.17;;;;;;;37.79;40.94;97743.09;4892476;29;20060;-68
2022/05/10 07:50:30;;;;;;;27.58;16.27;;;;;;;37.76;42.83;97734.69;4892100;29;20505;-68
2022/05/10 07:53:14;;;;;;;;;;;;;;;37.79;40.52;97726.16;4892571;29;20536;-67
2022/05/10 07:56:03;;;;;;;27.08;14.07;;;;;;;37.73;38.95;97732.50;4900560;29;19956;-67
2022/05/10 07:58:45;;;;;;;22.65;14.52;;;;;;;37.81;40.06;97729.41;4897743;29;20048;-67
2022/05/10 08:01:33;;;;;;;20.23;14.52;;;;;;;37.77;38.64;97728.25;4894627;29;20060;-68
2022/05/10 08:04:22;;;;;;;21.83;14.45;;;;;;;37.84;39.15;97718.16;4912046;29;20048;-67
2022/05/10 08:07:04;;;;;;;22.13;15.82;;;;;;;37.78;39.02;97713.75;4899906;29;20643;-67
2022/05/10 08:09:54;;;;;;;27.70;14.85;;;;;;;37.71;38.09;97705.84;4891560;29;20053;-68
2022/05/10 08:12:44;;;;;;;31.38;15.02;;;;;;;37.69;39.51;97693.69;4892081;29;20060;-67
2022/05/10 08:15:26;;;;;;;;;;;;;;;37.69;36.39;97699.06;4909238;29;20051;-68
2022/05/10 08:18:16;;;;;;;23.27;13.23;;;;;;;37.71;35.10;97691.59;4892120;29;19924;-68
2022/05/10 08:20:58;;;;;;;;;;;;;;;37.74;36.54;97686.53;4893258;29;20045;-67
2022/05/10 08:23:52;;;;;;;24.02;12.73;;;;;;;37.84;37.48;97691.25;4892086;29;20038;-67
2022/05/10 08:26:34;;;;;;;25.70;13.40;;;;;;;37.76;34.71;97679.03;4892140;29;20051;-67
2022/05/10 08:29:23;;;;;;;27.83;12.43;;;;;;;37.79;34.92;97688.50;4899459;29;20504;-67
2022/05/10 08:32:06;;;;;;;17.77;11.82;;;;;;;37.82;35.81;97675.38;4910981;29;20107;-68
2022/05/10 08:34:55;;;;;;;23.10;12.15;;;;;;;37.81;37.05;97675.63;4910480;29;20318;-67
2022/05/10 08:37:38;;;;;;;18.80;12.13;;;;;;;37.72;37.99;97669.00;4897575;29;20052;-68
2022/05/10 08:40:38;;;;;;;22.02;12.40;;;;;;;37.78;33.98;97670.72;4875283;29;20116;-67
2022/05/10 08:43:27;;;;;;;20.10;12.15;;;;;;;37.71;35.27;97670.06;4902505;29;20139;-67
2022/05/10 08:46:20;;;;;;;26.48;13.13;;;;;;;37.58;37.38;97657.75;4887914;29;20044;-68
2022/05/10 08:49:23;;;;;;;18.35;12.38;;;;;;;37.59;37.10;97659.41;4896912;29;20048;-68
2022/05/10 08:52:21;;;;;;;22.83;13.32;;;;;;;37.57;38.87;97652.59;4899098;29;20159;-68
2022/05/10 08:54:58;;;;;;;22.83;13.95;;;;;;;37.59;36.71;97645.13;4899030;29;20044;-67
2022/05/10 08:58:23;;;;;;;27.10;14.05;;;;;;;37.53;39.93;97636.94;4899182;29;20681;-68
2022/05/10 09:01:34;;;;;;;34.40;14.48;;;;;;;37.39;40.83;97624.88;4884765;29;20063;-68
2022/05/10 09:04:51;;;;;;;22.33;13.90;;;;;;;37.48;37.86;97620.75;4898837;29;20140;-68
2022/05/10 09:07:37;;;;;;;24.83;13.52;;;;;;;37.46;38.50;97619.34;4900187;29;20071;-68
2022/05/10 09:10:34;;;;;;;27.80;14.20;;;;;;;37.35;37.78;97604.13;4901741;29;20167;-68
2022/05/10 09:13:26;;;;;;;20.02;14.23;;;;;;;37.31;41.76;97603.78;4903038;28;20101;-69
2022/05/10 09:16:11;;;;;;;29.25;15.00;;;;;;;37.17;42.51;97605.16;4901327;29;20049;-68
2022/05/10 09:19:00;;;;;;;23.58;15.43;;;;;;;37.08;40.21;97593.16;4897142;29;20114;-68
2022/05/10 09:21:55;;;;;;;21.42;13.82;;;;;;;37.02;40.91;97592.25;4892957;29;20054;-67
2022/05/10 09:25:00;;;;;;;32.35;15.05;;;;;;;37.10;40.53;97591.84;4891804;29;20084;-68
2022/05/10 09:27:49;;;;;;;31.42;14.70;;;;;;;37.18;37.81;97585.28;4909530;29;20064;-68
2022/05/10 09:30:39;;;;;;;23.42;13.40;;;;;;;37.01;40.46;97579.88;4926973;29;20090;-68
2022/05/10 09:36:53;;;;;;;22.38;13.75;;;;;;;37.08;40.28;97568.97;4836449;29;20049;-68
2022/05/10 09:39:39;;;;;;;27.95;14.30;;;;;;;37.07;39.05;97560.09;4876706;29;20052;-69
2022/05/10 09:42:38;;;;;;;27.27;14.27;;;;;;;37.01;41.98;97552.19;4891266;29;20048;-70
2022/05/10 09:45:27;;;;;;;25.85;15.35;;;;;;;36.91;40.84;97549.31;4909577;29;20055;-68
2022/05/10 09:48:15;;;;;;;25.23;15.80;;;;;;;36.86;44.48;97535.81;4924937;29;20423;-68
2022/05/10 09:51:45;;;;;;;29.63;14.52;;;;;;;36.86;41.08;97544.69;4912906;29;20055;-69
2022/05/10 09:54:25;;;;;;;24.88;14.18;;;;;;;36.79;41.57;97544.84;4911070;29;20078;-68
2022/05/10 09:57:36;;;;;;;24.92;13.73;;;;;;;36.75;40.71;97529.44;4912629;29;20068;-68
2022/05/10 10:00:22;;;;;;;29.77;15.00;;;;;;;36.82;41.53;97524.72;4928703;29;20051;-68
2022/05/10 10:03:37;;;;;;;25.63;13.98;;;;;;;36.95;38.65;97518.25;4932641;29;20052;-68
2022/05/10 10:06:20;;;;;;;22.77;14.35;;;;;;;36.77;43.14;97513.91;4910986;29;20063;-69
2022/05/10 10:09:09;;;;;;;26.58;14.55;;;;;;;36.77;41.41;97508.53;4914106;28;20154;-68
2022/05/10 10:11:58;;;;;;;24.45;14.18;;;;;;;36.70;39.70;97508.69;4931349;29;20126;-68
2022/05/10 10:14:55;;;;;;;29.00;14.57;;;;;;;36.66;39.66;97512.91;4932922;29;20130;-68
2022/05/10 10:17:38;;;;;;;28.67;14.15;;;;;;;36.65;38.36;97507.72;4911704;29;20139;-68
2022/05/10 10:20:46;;;;;;;26.88;14.80;;;;;;;36.57;43.40;97505.44;4912780;29;20071;-68
2022/05/10 10:23:34;;;;;;;29.42;14.88;;;;;;;36.34;42.17;97498.31;4913100;29;20373;-67
2022/05/10 10:26:48;;;;;;;27.33;13.90;;;;;;;36.46;39.89;97495.59;4913816;29;20360;-64
2022/05/10 10:30:04;;;;;;;25.83;13.88;;;;;;;36.56;38.51;97485.81;4914663;29;20076;-67
2022/05/10 10:32:52;;;;;;;20.60;14.00;;;;;;;36.37;43.16;97476.38;4908169;29;20049;-67
2022/05/10 10:36:03;;;;;;;29.52;14.77;;;;;;;36.29;44.62;97474.06;4904773;29;20128;-68
2022/05/10 10:39:28;;;;;;;28.08;14.95;;;;;;;36.16;44.04;97464.38;4887975;29;20044;-66
2022/05/10 10:42:29;;;;;;;28.70;14.93;;;;;;;36.24;42.15;97471.28;4902017;29;20159;-70
2022/05/10 10:45:22;;;;;;;28.13;14.90;;;;;;;36.27;41.57;97466.25;4902451;29;20449;-68
2022/05/10 10:48:42;;;;;;;30.75;15.38;;;;;;;36.32;41.38;97469.00;4902493;29;20060;-67
2022/05/10 10:51:39;;;;;;;25.02;14.80;;;;;;;36.25;40.22;97467.53;4903959;29;20500;-67
2022/05/10 10:54:31;;;;;;;27.92;14.60;;;;;;;36.18;42.37;97458.78;4901946;29;20056;-68
2022/05/10 10:57:35;;;;;;;29.88;16.30;;;;;;;36.13;42.91;97442.59;4902372;29;20049;-68
2022/05/10 11:00:33;;;;;;;31.35;15.15;;;;;;;36.01;43.36;97440.75;4885526;29;20123;-67
2022/05/10 11:03:32;;;;;;;23.35;14.90;;;;;;;36.02;43.12;97441.59;4903632;29;20056;-67
2022/05/10 11:06:31;;;;;;;27.50;16.48;;;;;;;35.96;45.68;97431.81;4901090;29;20426;-67
2022/05/10 11:10:01;;;;;;;24.52;14.27;;;;;;;35.89;44.59;97429.28;4911233;29;20535;-67
2022/05/10 11:13:05;;;;;;;23.13;14.27;;;;;;;35.84;46.50;97423.78;4901754;29;20060;-67
2022/05/10 11:16:12;;;;;;;30.65;16.45;;;;;;;35.77;47.93;97416.94;4903343;29;20104;-67
2022/05/10 11:19:11;;;;;;;32.15;16.63;;;;;;;35.66;49.54;97402.50;4903205;29;20052;-67
2022/05/10 11:22:19;;;;;;;24.73;16.75;;;;;;;35.58;49.18;97408.22;4903194;29;20115;-67
2022/05/10 11:25:29;;;;;;;28.35;15.88;;;;;;;35.53;48.52;97405.41;4908499;29;20445;-68
2022/05/10 11:28:49;;;;;;;29.08;16.88;;;;;;;35.69;41.25;97407.38;4906699;29;20264;-68
2022/05/10 11:31:55;;;;;;;30.75;16.30;;;;;;;35.45;47.57;97403.91;4893369;29;20112;-68
2022/05/10 11:35:01;;;;;;;29.38;15.55;;;;;;;35.33;48.51;97405.00;4893625;29;20068;-68
2022/05/10 11:37:57;;;;;;;24.98;15.40;;;;;;;35.36;45.29;97399.19;4912071;29;20635;-68
2022/05/10 11:41:13;;;;;;;23.35;15.32;;;;;;;35.30;48.64;97404.41;4912015;29;20519;-68
2022/05/10 11:44:08;;;;;;;28.77;16.67;;;;;;;35.35;43.62;97403.72;4912178;29;20059;-68
2022/05/10 11:47:23;;;;;;;28.60;16.35;;;;;;;35.34;44.32;97401.28;4918330;29;20062;-68
2022/05/10 11:54:42;;;;;;;29.40;16.17;;;;;;;35.17;50.22;97390.44;4892083;29;20067;-68
2022/05/10 11:57:33;;;;;;;27.30;15.20;;;;;;;35.05;49.35;97386.94;4892606;29;20378;-67
2022/05/10 12:00:34;;;;;;;27.85;16.02;;;;;;;34.95;51.43;97384.84;4893145;29;20060;-67
2022/05/10 12:03:45;;;;;;;31.88;15.60;;;;;;;34.90;49.22;97390.88;4895787;29;20059;-65
2022/05/10 12:06:31;;;;;;;28.67;16.45;;;;;;;35.01;47.53;97391.13;4894980;29;20064;-67
2022/05/10 12:09:57;;;;;;;26.08;15.88;;;;;;;34.91;48.78;97389.03;4893069;29;20546;-68
2022/05/10 12:12:49;;;;;;;34.92;17.15;;;;;;;34.96;50.48;97389.16;4928782;29;20126;-67
2022/05/10 12:22:07;;;;;;;36.08;15.60;;;;;;;34.83;48.22;97384.03;4910432;29;20056;-68
2022/05/10 12:24:57;;;;;;;30.05;16.85;;;;;;;34.78;51.51;97375.88;4911421;29;20079;-69
2022/05/10 12:27:58;;;;;;;26.98;17.27;;;;;;;34.71;48.94;97377.81;4890028;29;20068;-68
2022/05/10 12:30:46;;;;;;;38.35;17.17;;;;;;;34.64;50.65;97385.97;4911107;29;20060;-68
2022/05/10 12:33:36;;;;;;;28.20;16.95;;;;;;;34.48;53.77;97383.97;4911383;29;20107;-68
2022/05/10 12:36:35;;;;;;;24.58;16.10;;;;;;;34.40;57.06;97381.63;4911634;29;20048;-68
2022/05/10 12:39:25;;;;;;;29.95;17.30;;;;;;;34.25;61.19;97376.66;4911073;29;20146;-69
2022/05/10 12:42:33;;;;;;;30.42;18.40;;;;;;;34.12;67.94;97379.50;4910519;29;20666;-69
2022/05/10 12:45:40;;;;;;;27.63;17.00;;;;;;;33.95;59.88;97386.53;4910821;29;20048;-68
2022/05/10 12:48:54;;;;;;;33.10;17.42;;;;;;;34.00;61.96;97378.66;4896760;29;20054;-69
2022/05/10 12:52:27;;;;;;;32.97;16.98;;;;;;;34.01;58.89;97381.09;4885337;29;20080;-69
2022/05/10 12:55:35;;;;;;;27.63;16.75;;;;;;;33.93;58.88;97377.91;4892204;29;20072;-70
2022/05/10 12:58:34;;;;;;;30.38;17.95;;;;;;;33.79;59.86;97378.09;4898305;29;20524;-68
2022/05/10 13:01:26;;;;;;;30.98;16.48;;;;;;;33.74;60.07;97380.66;4898648;29;20052;-69
2022/05/10 13:04:23;;;;;;;33.80;18.17;;;;;;;33.68;61.29;97372.69;4890548;29;20376;-66
2022/05/10 13:07:21;;;;;;;28.77;17.48;;;;;;;33.61;61.55;97374.59;4908701;29;20075;-69
2022/05/10 13:10:20;;;;;;;32.88;17.73;;;;;;;33.55;62.39;97386.19;4912578;29;20117;-68
2022/05/10 13:13:16;;;;;;;30.27;17.48;;;;;;;33.49;62.78;97385.22;4901627;29;20080;-70
2022/05/10 13:16:01;;;;;;;36.50;17.13;;;;;;;33.37;67.38;97385.16;4900576;29;20057;-67
2022/05/10 13:18:54;;;;;;;35.95;18.10;;;;;;;33.31;64.74;97385.22;4900575;29;20111;-66
2022/05/10 13:21:37;;;;;;;41.00;17.10;;;;;;;33.23;65.99;97381.00;4901614;29;20044;-66
2022/05/10 13:24:27;;;;;;;31.13;17.58;;;;;;;33.15;67.68;97385.78;4909885;29;20072;-68
2022/05/10 13:27:31;;;;;;;42.53;18.75;;;;;;;33.10;61.42;97389.13;4907120;29;20040;-68
2022/05/10 13:30:25;;;;;;;43.08;19.85;;;;;;;33.08;64.92;97390.34;4898161;29;20040;-67
2022/05/10 13:33:36;;;;;;;63.58;19.33;;;;;;;33.05;63.92;97387.09;4891115;29;20060;-67
2022/05/10 13:36:27;;;;;;;53.17;20.60;;;;;;;33.02;65.89;97389.41;4885979;29;20117;-67
2022/05/10 13:39:31;;;;;;;37.97;19.75;;;;;;;32.95;70.81;97389.47;4902291;29;20647;-68
2022/05/10 13:42:14;;;;;;;45.15;19.52;;;;;;;32.87;69.42;97389.75;4899109;29;20568;-68